Terminal Aerodrome Forecast
Issued by NWS

Home | Current Version | Previous Version | Text Only | Print | Product List | Glossary On
Versions: 1 2 3 4 5 6 7 8 9 10 11 12 13 14 15 16 17 18 19 20 21
000
FTUS42 KMLB 181500 AAB
TAFISM
TAF AMD
KISM 181558Z 1816/1912 14010KT P6SM VCSH BKN020 BKN027
      TEMPO 1816/1818 -RA BKN015
     FM181800 15011KT P6SM SHRA VCTS SCT020 BKN040CB OVC060
      TEMPO 1820/1822 4SM TSRA SCT020 BKN030CB
     FM190300 18008KT P6SM VCSH BKN030 OVC050=

USA.gov is the U.S. government's official web portal to all federal, state and local government web resources and services.